createdAt,value
2023-04-07T00:02:37.729Z,3.30
2023-04-07T00:05:23.560Z,3.27
2023-04-07T00:08:09.249Z,3.21
2023-04-07T00:10:54.965Z,3.12
2023-04-07T00:13:40.707Z,3.10
2023-04-07T00:16:26.690Z,3.08
2023-04-07T00:19:12.656Z,3.03
2023-04-07T00:21:58.626Z,2.99
2023-04-07T00:24:44.743Z,2.91
2023-04-07T00:27:31.052Z,2.85
2023-04-07T00:30:17.921Z,2.84
2023-04-07T00:33:04.195Z,2.76
2023-04-07T00:35:57.973Z,2.77
2023-04-07T00:38:44.173Z,2.76
2023-04-07T00:41:29.821Z,2.67
2023-04-07T00:44:16.198Z,2.72
2023-04-07T00:47:02.710Z,2.67
2023-04-07T00:49:49.318Z,2.64
2023-04-07T00:52:36.172Z,2.63
2023-04-07T00:55:22.001Z,2.59
2023-04-07T00:58:08.071Z,2.58
2023-04-07T01:01:09.343Z,2.48
2023-04-07T01:04:02.459Z,2.51
2023-04-07T01:06:51.150Z,2.50
2023-04-07T01:09:51.256Z,2.46
2023-04-07T01:12:47.336Z,2.46
2023-04-07T01:15:35.089Z,2.39
2023-04-07T01:18:25.396Z,2.34
2023-04-07T01:21:14.472Z,2.28
2023-04-07T01:24:39.264Z,2.17
2023-04-07T01:27:33.161Z,2.08
2023-04-07T01:30:19.702Z,2.12
2023-04-07T01:33:06.528Z,2.10
2023-04-07T01:35:53.550Z,2.07
2023-04-07T01:38:39.838Z,2.05
2023-04-07T01:41:26.409Z,2.06
2023-04-07T01:44:12.303Z,2.07
2023-04-07T01:46:58.768Z,2.05
2023-04-07T01:49:45.555Z,1.99
2023-04-07T01:52:33.344Z,1.93
2023-04-07T01:55:19.366Z,1.87
2023-04-07T01:58:20.591Z,1.88
2023-04-07T02:01:06.796Z,1.88
2023-04-07T02:04:22.741Z,1.83
2023-04-07T02:07:20.375Z,1.87
2023-04-07T02:10:12.557Z,1.86
2023-04-07T02:12:58.912Z,1.86
2023-04-07T02:15:45.914Z,1.88
2023-04-07T02:18:32.508Z,1.90
2023-04-07T02:21:18.884Z,1.89
2023-04-07T02:24:08.374Z,1.89
2023-04-07T02:26:54.157Z,1.88
2023-04-07T02:29:40.986Z,1.93
2023-04-07T02:32:26.997Z,1.97
2023-04-07T02:35:12.978Z,2.02
2023-04-07T02:38:01.640Z,2.01
2023-04-07T02:40:47.651Z,2.03
2023-04-07T02:43:33.516Z,2.03
2023-04-07T02:46:19.357Z,2.06
2023-04-07T02:49:04.917Z,2.07
2023-04-07T02:51:50.880Z,2.03
2023-04-07T02:54:36.863Z,1.94
2023-04-07T02:57:23.031Z,1.92
2023-04-07T03:00:12.501Z,1.80
2023-04-07T03:03:19.875Z,1.83
2023-04-07T03:06:18.524Z,1.82
2023-04-07T03:09:16.611Z,1.79
2023-04-07T03:12:02.691Z,1.77
2023-04-07T03:14:52.829Z,1.77
2023-04-07T03:17:40.906Z,1.73
2023-04-07T03:20:27.341Z,1.75
2023-04-07T03:23:13.694Z,1.71
2023-04-07T03:25:59.443Z,1.69
2023-04-07T03:28:49.610Z,1.61
2023-04-07T03:31:37.788Z,1.64
2023-04-07T03:34:23.522Z,1.58
2023-04-07T03:37:09.318Z,1.55
2023-04-07T03:39:57.388Z,1.54
2023-04-07T03:42:46.826Z,1.48
2023-04-07T03:45:33.957Z,1.43
2023-04-07T03:48:20.551Z,1.39
2023-04-07T03:51:21.717Z,1.30
2023-04-07T03:54:11.995Z,1.28
2023-04-07T03:57:02.356Z,1.27
2023-04-07T03:59:51.298Z,1.30
2023-04-07T04:02:38.272Z,1.31
2023-04-07T04:05:25.509Z,1.34
2023-04-07T04:08:11.977Z,1.35
2023-04-07T04:11:00.058Z,1.36
2023-04-07T04:13:52.982Z,1.36
2023-04-07T04:16:39.175Z,1.38
2023-04-07T04:19:35.839Z,1.31
2023-04-07T04:22:29.191Z,1.30
2023-04-07T04:25:17.510Z,1.25
2023-04-07T04:28:07.432Z,1.17
2023-04-07T04:30:54.598Z,1.12
2023-04-07T04:33:40.723Z,1.13
2023-04-07T04:36:27.739Z,1.17
2023-04-07T04:39:18.239Z,1.19
2023-04-07T04:42:05.667Z,1.20
2023-04-07T04:44:55.418Z,1.17
2023-04-07T04:47:43.314Z,1.27
2023-04-07T04:50:30.825Z,1.34
2023-04-07T04:53:22.281Z,1.39
2023-04-07T04:56:13.667Z,1.41
2023-04-07T04:59:04.958Z,1.49
2023-04-07T05:02:11.643Z,1.55
2023-04-07T05:04:58.042Z,1.61
2023-04-07T05:07:47.467Z,1.60
2023-04-07T05:10:41.511Z,1.65
2023-04-07T05:13:32.102Z,1.70
2023-04-07T05:16:20.973Z,1.70
2023-04-07T05:19:07.278Z,1.78
2023-04-07T05:21:53.810Z,1.77
2023-04-07T05:24:41.677Z,1.89
2023-04-07T05:27:27.451Z,1.91
2023-04-07T05:30:17.744Z,1.97
2023-04-07T05:33:03.891Z,2.05
2023-04-07T05:36:00.639Z,2.11
2023-04-07T05:38:46.534Z,2.12
2023-04-07T05:41:36.587Z,2.14
2023-04-07T05:44:23.260Z,2.18
2023-04-07T05:47:11.524Z,2.28
2023-04-07T05:49:58.711Z,2.34
2023-04-07T05:52:45.285Z,2.46
2023-04-07T05:55:45.987Z,2.58
2023-04-07T05:58:40.630Z,2.71
2023-04-07T06:01:29.282Z,2.80
2023-04-07T06:04:15.419Z,2.88
2023-04-07T06:07:02.495Z,2.98
2023-04-07T06:09:48.212Z,3.08
2023-04-07T06:12:34.099Z,3.16
2023-04-07T06:15:19.780Z,3.27
2023-04-07T06:18:05.727Z,3.39
2023-04-07T06:20:52.091Z,3.50
2023-04-07T06:23:37.712Z,3.60
2023-04-07T06:26:26.336Z,3.70
2023-04-07T06:29:15.200Z,3.78
2023-04-07T06:32:02.566Z,3.75
2023-04-07T06:34:48.665Z,3.85
2023-04-07T06:37:34.354Z,3.86
2023-04-07T06:40:20.012Z,3.85
2023-04-07T06:43:06.338Z,3.82
2023-04-07T06:46:01.781Z,3.87
2023-04-07T06:48:47.647Z,3.88
2023-04-07T06:51:33.496Z,3.92
2023-04-07T06:54:19.116Z,3.94
2023-04-07T06:57:05.221Z,4.03
2023-04-07T06:59:51.277Z,4.10
2023-04-07T07:02:37.414Z,4.21
2023-04-07T07:05:23.685Z,4.32
2023-04-07T07:08:09.570Z,4.44
2023-04-07T07:11:27.422Z,4.52
2023-04-07T07:14:13.395Z,4.60
2023-04-07T07:16:59.419Z,4.70
2023-04-07T07:19:48.590Z,4.78
2023-04-07T07:22:34.182Z,4.84
2023-04-07T07:25:20.119Z,4.92
2023-04-07T07:29:18.122Z,4.96
2023-04-07T07:32:04.262Z,5.08
2023-04-07T07:34:50.108Z,5.17
2023-04-07T07:37:39.937Z,5.20
2023-04-07T07:40:29.703Z,5.36
2023-04-07T07:43:15.451Z,5.54
2023-04-07T07:46:01.265Z,5.69
2023-04-07T07:48:47.273Z,5.91
2023-04-07T07:51:33.022Z,6.09
2023-04-07T07:54:22.856Z,6.26
2023-04-07T07:57:09.035Z,6.42
2023-04-07T07:59:54.923Z,6.56
2023-04-07T08:02:40.800Z,6.69
2023-04-07T08:05:26.914Z,6.74
2023-04-07T08:08:12.967Z,6.86
2023-04-07T08:10:59.051Z,7.00
2023-04-07T08:13:46.752Z,7.07
2023-04-07T08:16:33.450Z,7.14
2023-04-07T08:19:19.261Z,7.20
2023-04-07T08:22:05.062Z,7.28
2023-04-07T08:24:50.999Z,7.37
2023-04-07T08:27:37.046Z,7.46
2023-04-07T08:30:22.788Z,7.56
2023-04-07T08:33:08.741Z,7.61
2023-04-07T08:35:54.450Z,7.68
2023-04-07T08:38:40.603Z,7.70
2023-04-07T08:41:42.422Z,7.69
2023-04-07T08:44:37.214Z,7.75
2023-04-07T08:47:23.850Z,7.81
2023-04-07T08:50:11.487Z,7.81
2023-04-07T08:52:57.710Z,7.81
2023-04-07T08:55:43.211Z,7.80
2023-04-07T08:58:46.625Z,7.84
2023-04-07T09:01:32.580Z,7.93
2023-04-07T09:04:18.584Z,8.02
2023-04-07T09:07:04.486Z,8.10
2023-04-07T09:09:50.807Z,8.16
2023-04-07T09:12:39.120Z,8.20
2023-04-07T09:15:26.101Z,8.23
2023-04-07T09:18:11.990Z,8.23
2023-04-07T09:21:46.892Z,8.19
2023-04-07T09:24:32.644Z,8.19
2023-04-07T09:27:23.179Z,8.18
2023-04-07T09:30:17.477Z,8.14
2023-04-07T09:33:03.501Z,8.10
2023-04-07T09:35:56.937Z,8.10
2023-04-07T09:39:08.528Z,8.07
2023-04-07T09:42:07.927Z,8.07
2023-04-07T09:44:59.831Z,8.09
2023-04-07T09:48:20.940Z,8.01
2023-04-07T09:51:12.774Z,8.14
2023-04-07T09:53:58.593Z,8.19
2023-04-07T09:56:44.941Z,8.21
2023-04-07T09:59:32.356Z,8.20
2023-04-07T10:02:18.376Z,8.18
2023-04-07T10:05:04.896Z,8.16
2023-04-07T10:07:51.546Z,8.11
2023-04-07T10:10:42.944Z,8.06
2023-04-07T10:13:32.969Z,8.06
2023-04-07T10:16:19.314Z,8.02
2023-04-07T10:19:06.428Z,8.01
2023-04-07T10:21:53.754Z,8.00
2023-04-07T10:29:15.219Z,8.00
2023-04-07T10:32:02.515Z,8.03
2023-04-07T10:34:51.234Z,8.09
2023-04-07T10:37:37.515Z,8.12
2023-04-07T10:40:30.239Z,8.13
2023-04-07T10:43:40.905Z,8.09
2023-04-07T10:46:49.606Z,8.06
2023-04-07T10:49:36.047Z,8.11
2023-04-07T10:52:23.406Z,8.12
2023-04-07T10:55:29.027Z,8.10
2023-04-07T10:58:19.265Z,8.15
2023-04-07T11:01:08.575Z,8.15
2023-04-07T11:03:59.651Z,8.16
2023-04-07T11:06:48.503Z,8.21
2023-04-07T11:09:34.540Z,8.22
2023-04-07T11:12:24.175Z,8.30
2023-04-07T11:15:22.247Z,8.34
2023-04-07T11:18:18.592Z,8.38
2023-04-07T11:21:06.414Z,8.45
2023-04-07T11:23:52.385Z,8.52
2023-04-07T11:26:40.231Z,8.57
2023-04-07T11:29:30.759Z,8.59
2023-04-07T11:32:16.841Z,8.59
2023-04-07T11:35:07.029Z,8.58
2023-04-07T11:37:59.841Z,8.59
2023-04-07T11:40:47.098Z,8.60
2023-04-07T11:43:34.195Z,8.63
2023-04-07T11:46:20.052Z,8.61
2023-04-07T11:49:13.879Z,8.61
2023-04-07T11:52:09.529Z,8.58
2023-04-07T11:54:55.544Z,8.75
2023-04-07T11:57:41.730Z,8.75
2023-04-07T12:00:28.216Z,8.80
2023-04-07T12:03:14.682Z,8.82
2023-04-07T12:06:02.432Z,8.86
2023-04-07T12:08:48.515Z,8.83
2023-04-07T12:11:36.027Z,8.81
2023-04-07T12:14:22.328Z,8.72
2023-04-07T12:17:21.232Z,8.60
2023-04-07T12:20:07.913Z,8.62
2023-04-07T12:22:54.032Z,8.62
2023-04-07T12:25:40.006Z,8.66
2023-04-07T12:28:25.629Z,8.67
2023-04-07T12:31:11.466Z,8.56
2023-04-07T12:33:57.046Z,8.48
2023-04-07T12:36:43.803Z,8.47
2023-04-07T12:39:29.714Z,8.49
2023-04-07T12:42:15.548Z,8.52
2023-04-07T12:45:01.458Z,8.51
2023-04-07T12:47:47.551Z,8.54
2023-04-07T12:50:36.449Z,8.50
2023-04-07T12:53:23.681Z,8.56
2023-04-07T12:56:09.515Z,8.54
2023-04-07T12:58:55.234Z,8.64
2023-04-07T13:01:41.260Z,8.72
2023-04-07T13:04:30.437Z,8.77
2023-04-07T13:07:16.365Z,8.85
2023-04-07T13:10:02.972Z,8.91
2023-04-07T13:12:49.007Z,8.96
2023-04-07T13:15:34.812Z,8.99
2023-04-07T13:18:20.511Z,9.08
2023-04-07T13:21:38.203Z,9.17
2023-04-07T13:24:12.242Z,9.23
2023-04-07T13:26:59.596Z,9.27
2023-04-07T13:29:45.851Z,9.28
2023-04-07T13:32:31.762Z,9.32
2023-04-07T13:35:18.002Z,9.37
2023-04-07T13:38:04.085Z,9.44
2023-04-07T13:40:49.832Z,9.53
2023-04-07T13:43:35.794Z,9.65
2023-04-07T13:46:28.628Z,9.79
2023-04-07T13:49:15.184Z,9.89
2023-04-07T13:52:00.849Z,9.92
2023-04-07T13:54:46.480Z,10.01
2023-04-07T13:57:32.303Z,10.04
2023-04-07T14:00:18.618Z,10.03
2023-04-07T14:03:04.697Z,10.04
2023-04-07T14:05:50.800Z,9.96
2023-04-07T14:08:36.689Z,10.04
2023-04-07T14:11:22.721Z,10.03
2023-04-07T14:14:08.740Z,10.07
2023-04-07T14:16:54.925Z,10.14
2023-04-07T14:19:40.786Z,10.19
2023-04-07T14:22:26.673Z,10.26
2023-04-07T14:25:12.421Z,10.27
2023-04-07T14:27:58.274Z,10.27
2023-04-07T14:30:44.387Z,10.25
2023-04-07T14:33:30.647Z,10.28
2023-04-07T14:36:19.313Z,10.37
2023-04-07T14:39:05.486Z,10.51
2023-04-07T14:41:52.759Z,10.64
2023-04-07T14:44:45.952Z,10.75
2023-04-07T14:47:31.708Z,10.87
2023-04-07T14:50:17.585Z,10.98
2023-04-07T14:53:03.792Z,11.03
2023-04-07T14:55:49.935Z,11.13
2023-04-07T14:58:37.624Z,11.21
2023-04-07T15:01:23.429Z,11.30
2023-04-07T15:04:09.293Z,11.41
2023-04-07T15:06:56.226Z,11.52
2023-04-07T15:09:41.958Z,11.74
2023-04-07T15:12:29.841Z,12.07
2023-04-07T15:15:16.689Z,12.43
2023-04-07T15:18:04.108Z,12.85
2023-04-07T15:20:50.279Z,13.30
2023-04-07T15:23:37.888Z,13.55
2023-04-07T15:26:23.774Z,13.73
2023-04-07T15:29:09.434Z,13.79
2023-04-07T15:31:55.638Z,13.72
2023-04-07T15:34:41.589Z,13.56
2023-04-07T15:37:27.480Z,13.42
2023-04-07T15:40:14.479Z,13.52
2023-04-07T15:43:00.954Z,13.62
2023-04-07T15:45:47.923Z,13.63
2023-04-07T15:48:33.689Z,13.52
2023-04-07T15:51:19.462Z,13.31
2023-04-07T15:54:05.402Z,13.05
2023-04-07T15:56:51.937Z,12.79
2023-04-07T15:59:37.573Z,12.53
2023-04-07T16:02:24.716Z,12.26
2023-04-07T16:05:10.648Z,12.06
2023-04-07T16:07:56.651Z,11.90
2023-04-07T16:10:42.697Z,11.76
2023-04-07T16:13:28.466Z,11.62
2023-04-07T16:16:14.270Z,11.51
2023-04-07T16:19:00.109Z,11.45
2023-04-07T16:21:46.065Z,11.39
2023-04-07T16:24:31.944Z,11.35
2023-04-07T16:27:17.544Z,11.27
2023-04-07T16:30:06.978Z,11.17
2023-04-07T16:32:52.829Z,11.08
2023-04-07T16:35:39.008Z,11.03
2023-04-07T16:38:24.849Z,10.94
2023-04-07T16:41:11.060Z,10.85
2023-04-07T16:43:57.168Z,10.73
2023-04-07T16:46:42.767Z,10.65
2023-04-07T16:49:28.505Z,10.53
2023-04-07T16:52:14.295Z,10.44
2023-04-07T16:55:00.778Z,10.37
2023-04-07T16:57:46.678Z,10.29
2023-04-07T17:00:32.602Z,10.17
2023-04-07T17:03:18.473Z,10.10
2023-04-07T17:06:07.449Z,10.04
2023-04-07T17:08:53.395Z,9.96
2023-04-07T17:11:41.184Z,9.88
2023-04-07T17:14:26.867Z,9.81
2023-04-07T17:17:13.076Z,9.73
2023-04-07T17:20:00.579Z,9.67
2023-04-07T17:22:49.146Z,9.60
2023-04-07T17:25:35.508Z,9.55
2023-04-07T17:28:21.945Z,9.47
2023-04-07T17:31:07.848Z,9.43
2023-04-07T17:33:53.881Z,9.41
2023-04-07T17:36:40.973Z,9.36
2023-04-07T17:39:26.908Z,9.33
2023-04-07T17:42:12.723Z,9.28
2023-04-07T17:45:04.961Z,9.24
2023-04-07T17:47:53.365Z,9.21
2023-04-07T17:50:42.507Z,9.19
2023-04-07T17:53:29.751Z,9.19
2023-04-07T17:56:15.763Z,9.10
2023-04-07T17:59:01.591Z,9.05
2023-04-07T18:01:47.531Z,9.01
2023-04-07T18:04:33.882Z,8.95
2023-04-07T18:07:20.995Z,8.90
2023-04-07T18:10:07.317Z,8.88
2023-04-07T18:12:53.070Z,8.87
2023-04-07T18:15:38.735Z,8.81
2023-04-07T18:18:24.719Z,8.80
2023-04-07T18:21:10.857Z,8.72
2023-04-07T18:23:56.507Z,8.72
2023-04-07T18:26:44.513Z,8.74
2023-04-07T18:29:38.638Z,8.72
2023-04-07T18:32:24.777Z,8.72
2023-04-07T18:35:10.450Z,8.73
2023-04-07T18:37:57.191Z,8.72
2023-04-07T18:40:44.077Z,8.62
2023-04-07T18:43:38.438Z,8.69
2023-04-07T18:46:24.628Z,8.63
2023-04-07T18:49:10.511Z,8.65
2023-04-07T18:51:56.293Z,8.61
2023-04-07T18:54:41.981Z,8.57
2023-04-07T18:57:28.228Z,8.51
2023-04-07T19:00:14.033Z,8.55
2023-04-07T19:02:59.938Z,8.52
2023-04-07T19:05:47.779Z,8.55
2023-04-07T19:08:33.969Z,8.53
2023-04-07T19:11:19.700Z,8.55
2023-04-07T19:14:06.044Z,8.50
2023-04-07T19:16:52.163Z,8.53
2023-04-07T19:19:37.755Z,8.51
2023-04-07T19:22:23.530Z,8.52
2023-04-07T19:25:09.399Z,8.51
2023-04-07T19:27:55.366Z,8.46
2023-04-07T19:30:41.080Z,8.46
2023-04-07T19:33:26.921Z,8.43
2023-04-07T19:36:12.981Z,8.39
2023-04-07T19:38:58.901Z,8.37
2023-04-07T19:41:44.807Z,8.36
2023-04-07T19:44:31.983Z,8.32
2023-04-07T19:47:17.598Z,8.31
2023-04-07T19:50:04.416Z,8.36
2023-04-07T19:52:53.326Z,8.35
2023-04-07T19:55:46.164Z,8.34
2023-04-07T19:58:32.916Z,8.35
2023-04-07T20:01:19.145Z,8.34
2023-04-07T20:04:05.418Z,8.29
2023-04-07T20:06:51.270Z,8.28
2023-04-07T20:09:37.545Z,8.20
2023-04-07T20:12:24.308Z,8.17
2023-04-07T20:15:11.201Z,8.11
2023-04-07T20:17:56.977Z,8.02
2023-04-07T20:20:42.896Z,8.00
2023-04-07T20:23:28.816Z,7.95
2023-04-07T20:26:14.963Z,7.89
2023-04-07T20:29:00.895Z,7.85
2023-04-07T20:31:46.969Z,7.80
2023-04-07T20:34:32.985Z,7.79
2023-04-07T20:37:19.704Z,7.75
2023-04-07T20:40:06.437Z,7.72
2023-04-07T20:42:52.078Z,7.72
2023-04-07T20:45:38.374Z,7.66
2023-04-07T20:48:24.435Z,7.64
2023-04-07T20:51:14.329Z,7.60
2023-04-07T20:54:00.010Z,7.55
2023-04-07T20:56:45.721Z,7.55
2023-04-07T20:59:32.720Z,7.47
2023-04-07T21:02:18.827Z,7.46
2023-04-07T21:05:05.173Z,7.43
2023-04-07T21:07:50.830Z,7.41
2023-04-07T21:10:36.755Z,7.39
2023-04-07T21:13:38.118Z,7.32
2023-04-07T21:16:23.967Z,7.27
2023-04-07T21:19:09.689Z,7.26
2023-04-07T21:21:55.724Z,7.17
2023-04-07T21:24:41.752Z,7.17
2023-04-07T21:27:29.457Z,7.17
2023-04-07T21:30:16.676Z,7.14
2023-04-07T21:33:02.572Z,7.18
2023-04-07T21:35:49.524Z,7.20
2023-04-07T21:38:35.825Z,7.22
2023-04-07T21:41:22.034Z,7.22
2023-04-07T21:44:10.296Z,7.27
2023-04-07T21:47:01.426Z,7.29
2023-04-07T21:50:11.366Z,7.31
2023-04-07T21:52:57.170Z,7.36
2023-04-07T21:55:43.196Z,7.41
2023-04-07T21:58:29.146Z,7.44
2023-04-07T22:01:15.039Z,7.43
2023-04-07T22:04:00.603Z,7.43
2023-04-07T22:06:51.570Z,7.40
2023-04-07T22:09:37.225Z,7.38
2023-04-07T22:12:22.850Z,7.38
2023-04-07T22:15:09.427Z,7.32
2023-04-07T22:17:56.527Z,7.38
2023-04-07T22:20:42.327Z,7.34
2023-04-07T22:23:41.589Z,7.29
2023-04-07T22:27:45.575Z,7.30
2023-04-07T22:30:37.454Z,7.37
2023-04-07T22:33:23.210Z,7.37
2023-04-07T22:36:09.182Z,7.42
2023-04-07T22:38:54.964Z,7.43
2023-04-07T22:41:41.099Z,7.47
2023-04-07T22:44:32.123Z,7.43
2023-04-07T22:47:18.290Z,7.49
2023-04-07T22:50:14.450Z,7.50
2023-04-07T22:53:00.592Z,7.55
2023-04-07T22:55:47.244Z,7.56
2023-04-07T22:58:33.335Z,7.53
2023-04-07T23:01:19.182Z,7.53
2023-04-07T23:04:06.430Z,7.52
2023-04-07T23:06:53.209Z,7.48
2023-04-07T23:09:38.886Z,7.46
2023-04-07T23:12:24.678Z,7.45
2023-04-07T23:15:10.888Z,7.48
2023-04-07T23:17:56.860Z,7.45
2023-04-07T23:20:50.163Z,7.39
2023-04-07T23:23:39.134Z,7.32
2023-04-07T23:26:34.363Z,7.27
2023-04-07T23:29:21.796Z,7.25
2023-04-07T23:32:08.139Z,7.14
2023-04-07T23:34:54.342Z,7.01
2023-04-07T23:37:42.358Z,7.10
2023-04-07T23:40:28.082Z,7.01
2023-04-07T23:43:13.788Z,6.91
2023-04-07T23:46:00.175Z,6.88
2023-04-07T23:48:45.976Z,6.82
2023-04-07T23:51:32.280Z,6.78
2023-04-07T23:54:18.408Z,6.74
2023-04-07T23:57:04.240Z,6.68
2023-04-07T23:59:49.758Z,6.63
